sensor_id;sensor_type;location;lat;lon;timestamp;pressure;altitude;pressure_sealevel;temperature;humidity
4024;BME280;2026;51.002;13.668;2023-02-23T00:03:23;98736.31;;;5.00;91.95
4024;BME280;2026;51.002;13.668;2023-02-23T00:08:26;98736.59;;;4.90;92.82
4024;BME280;2026;51.002;13.668;2023-02-23T00:13:31;98745.56;;;4.88;92.05
4024;BME280;2026;51.002;13.668;2023-02-23T00:18:38;98736.13;;;5.02;91.53
4024;BME280;2026;51.002;13.668;2023-02-23T00:23:50;98730.44;;;4.91;92.04
4024;BME280;2026;51.002;13.668;2023-02-23T00:28:56;98724.59;;;4.89;92.33
4024;BME280;2026;51.002;13.668;2023-02-23T00:34:02;98730.78;;;4.88;92.34
4024;BME280;2026;51.002;13.668;2023-02-23T00:39:06;98730.31;;;5.00;91.36
4024;BME280;2026;51.002;13.668;2023-02-23T00:44:21;98736.50;;;4.98;92.04
4024;BME280;2026;51.002;13.668;2023-02-23T00:49:25;98723.50;;;4.98;92.02
4024;BME280;2026;51.002;13.668;2023-02-23T00:54:28;98728.34;;;4.87;92.50
4024;BME280;2026;51.002;13.668;2023-02-23T00:59:32;98734.97;;;4.89;92.23
4024;BME280;2026;51.002;13.668;2023-02-23T01:04:35;98733.53;;;4.87;92.53
4024;BME280;2026;51.002;13.668;2023-02-23T01:09:38;98733.66;;;4.78;93.12
4024;BME280;2026;51.002;13.668;2023-02-23T01:14:42;98727.50;;;4.79;92.86
4024;BME280;2026;51.002;13.668;2023-02-23T01:19:46;98721.25;;;4.59;94.47
4024;BME280;2026;51.002;13.668;2023-02-23T01:24:49;98720.66;;;4.78;93.68
4024;BME280;2026;51.002;13.668;2023-02-23T01:29:54;98716.66;;;4.76;94.06
4024;BME280;2026;51.002;13.668;2023-02-23T01:34:57;98712.19;;;4.69;94.28
4024;BME280;2026;51.002;13.668;2023-02-23T01:40:00;98701.97;;;4.83;93.06
4024;BME280;2026;51.002;13.668;2023-02-23T01:45:24;98707.00;;;4.69;93.11
4024;BME280;2026;51.002;13.668;2023-02-23T01:50:30;98703.03;;;4.74;93.56
4024;BME280;2026;51.002;13.668;2023-02-23T01:55:35;98695.88;;;4.76;93.07
4024;BME280;2026;51.002;13.668;2023-02-23T02:00:41;98691.13;;;4.79;93.21
4024;BME280;2026;51.002;13.668;2023-02-23T02:05:47;98682.34;;;4.80;93.39
4024;BME280;2026;51.002;13.668;2023-02-23T02:10:52;98679.97;;;4.86;93.34
4024;BME280;2026;51.002;13.668;2023-02-23T02:16:13;98680.41;;;4.89;92.70
4024;BME280;2026;51.002;13.668;2023-02-23T02:21:47;98673.63;;;4.88;92.72
4024;BME280;2026;51.002;13.668;2023-02-23T02:27:01;98669.91;;;4.97;92.58
4024;BME280;2026;51.002;13.668;2023-02-23T02:32:43;98675.22;;;4.89;92.97
4024;BME280;2026;51.002;13.668;2023-02-23T02:38:11;98675.50;;;4.94;93.15
4024;BME280;2026;51.002;13.668;2023-02-23T02:43:23;98672.50;;;4.76;93.83
4024;BME280;2026;51.002;13.668;2023-02-23T02:48:36;98666.69;;;4.95;92.93
4024;BME280;2026;51.002;13.668;2023-02-23T02:53:49;98660.84;;;4.72;94.73
4024;BME280;2026;51.002;13.668;2023-02-23T02:58:54;98654.59;;;5.03;93.17
4024;BME280;2026;51.002;13.668;2023-02-23T03:03:58;98656.19;;;5.04;93.44
4024;BME280;2026;51.002;13.668;2023-02-23T03:09:25;98651.25;;;5.09;93.29
4024;BME280;2026;51.002;13.668;2023-02-23T03:14:54;98654.84;;;5.08;93.64
4024;BME280;2026;51.002;13.668;2023-02-23T03:20:23;98645.88;;;5.10;93.36
4024;BME280;2026;51.002;13.668;2023-02-23T03:25:53;98645.31;;;4.93;94.24
4024;BME280;2026;51.002;13.668;2023-02-23T03:31:22;98645.31;;;5.15;93.59
4024;BME280;2026;51.002;13.668;2023-02-23T03:36:52;98636.69;;;5.15;93.85
4024;BME280;2026;51.002;13.668;2023-02-23T03:42:20;98656.69;;;4.92;95.53
4024;BME280;2026;51.002;13.668;2023-02-23T03:47:43;98652.81;;;5.03;95.71
4024;BME280;2026;51.002;13.668;2023-02-23T03:53:07;98655.19;;;5.05;95.48
4024;BME280;2026;51.002;13.668;2023-02-23T03:58:33;98653.59;;;5.25;94.03
4024;BME280;2026;51.002;13.668;2023-02-23T04:03:57;98657.81;;;5.27;94.76
4024;BME280;2026;51.002;13.668;2023-02-23T04:09:18;98656.94;;;5.41;93.96
4024;BME280;2026;51.002;13.668;2023-02-23T04:14:44;98660.44;;;5.33;93.94
4024;BME280;2026;51.002;13.668;2023-02-23T04:19:49;98665.28;;;5.36;93.79
4024;BME280;2026;51.002;13.668;2023-02-23T04:24:52;98662.13;;;5.19;94.73
4024;BME280;2026;51.002;13.668;2023-02-23T04:29:56;98664.69;;;5.13;95.48
4024;BME280;2026;51.002;13.668;2023-02-23T04:34:59;98665.97;;;5.23;94.95
4024;BME280;2026;51.002;13.668;2023-02-23T04:40:02;98672.34;;;5.21;95.39
4024;BME280;2026;51.002;13.668;2023-02-23T04:45:08;98676.00;;;5.27;94.78
4024;BME280;2026;51.002;13.668;2023-02-23T04:50:12;98658.34;;;5.22;94.50
4024;BME280;2026;51.002;13.668;2023-02-23T04:55:16;98659.47;;;5.13;95.27
4024;BME280;2026;51.002;13.668;2023-02-23T05:00:21;98654.59;;;5.03;95.94
4024;BME280;2026;51.002;13.668;2023-02-23T05:05:24;98657.34;;;5.01;95.90
4024;BME280;2026;51.002;13.668;2023-02-23T05:10:27;98663.66;;;4.92;95.67
4024;BME280;2026;51.002;13.668;2023-02-23T05:15:31;98663.59;;;4.85;96.71
4024;BME280;2026;51.002;13.668;2023-02-23T05:20:34;98665.16;;;5.01;95.08
4024;BME280;2026;51.002;13.668;2023-02-23T05:25:38;98669.31;;;4.95;94.90
4024;BME280;2026;51.002;13.668;2023-02-23T05:30:42;98668.88;;;4.92;95.68
4024;BME280;2026;51.002;13.668;2023-02-23T05:35:46;98669.78;;;5.06;94.58
4024;BME280;2026;51.002;13.668;2023-02-23T05:40:49;98674.66;;;4.94;94.74
4024;BME280;2026;51.002;13.668;2023-02-23T05:45:53;98675.66;;;4.93;94.43
4024;BME280;2026;51.002;13.668;2023-02-23T05:51:00;98675.06;;;4.91;94.55
4024;BME280;2026;51.002;13.668;2023-02-23T05:56:05;98670.09;;;4.59;95.56
4024;BME280;2026;51.002;13.668;2023-02-23T06:01:10;98674.94;;;4.62;96.73
4024;BME280;2026;51.002;13.668;2023-02-23T06:06:13;98677.72;;;4.61;96.60
4024;BME280;2026;51.002;13.668;2023-02-23T06:11:17;98681.03;;;4.69;96.08
4024;BME280;2026;51.002;13.668;2023-02-23T06:16:22;98685.38;;;4.84;94.49
4024;BME280;2026;51.002;13.668;2023-02-23T06:21:25;98692.06;;;4.93;93.82
4024;BME280;2026;51.002;13.668;2023-02-23T06:26:28;98699.59;;;4.88;93.49
4024;BME280;2026;51.002;13.668;2023-02-23T06:31:32;98708.00;;;4.90;94.61
4024;BME280;2026;51.002;13.668;2023-02-23T06:36:35;98709.75;;;5.05;93.89
4024;BME280;2026;51.002;13.668;2023-02-23T06:41:38;98702.81;;;4.90;94.75
4024;BME280;2026;51.002;13.668;2023-02-23T06:46:43;98710.53;;;4.98;95.21
4024;BME280;2026;51.002;13.668;2023-02-23T06:51:46;98699.25;;;4.91;96.76
4024;BME280;2026;51.002;13.668;2023-02-23T06:56:49;98695.66;;;5.14;96.38
4024;BME280;2026;51.002;13.668;2023-02-23T07:01:53;98700.50;;;5.39;95.99
4024;BME280;2026;51.002;13.668;2023-02-23T07:06:56;98705.69;;;5.61;95.08
4024;BME280;2026;51.002;13.668;2023-02-23T07:11:59;98706.44;;;5.55;95.10
4024;BME280;2026;51.002;13.668;2023-02-23T07:17:04;98717.84;;;5.32;96.83
4024;BME280;2026;51.002;13.668;2023-02-23T07:22:08;98709.56;;;5.72;95.36
4024;BME280;2026;51.002;13.668;2023-02-23T07:27:11;98709.19;;;6.03;93.53
4024;BME280;2026;51.002;13.668;2023-02-23T07:32:15;98709.50;;;6.22;93.30
4024;BME280;2026;51.002;13.668;2023-02-23T07:37:18;98707.41;;;6.39;93.37
4024;BME280;2026;51.002;13.668;2023-02-23T07:42:22;98708.09;;;6.61;93.10
4024;BME280;2026;51.002;13.668;2023-02-23T07:47:28;98719.22;;;6.84;93.30
4024;BME280;2026;51.002;13.668;2023-02-23T07:52:31;98724.25;;;6.08;96.63
4024;BME280;2026;51.002;13.668;2023-02-23T07:57:34;98732.41;;;6.33;95.44
4024;BME280;2026;51.002;13.668;2023-02-23T08:02:39;98717.69;;;6.54;93.87
4024;BME280;2026;51.002;13.668;2023-02-23T08:07:42;98718.63;;;6.88;92.61
4024;BME280;2026;51.002;13.668;2023-02-23T08:12:45;98708.88;;;7.04;92.01
4024;BME280;2026;51.002;13.668;2023-02-23T08:17:49;98714.28;;;7.09;92.83
4024;BME280;2026;51.002;13.668;2023-02-23T08:22:53;98714.75;;;7.20;92.95
4024;BME280;2026;51.002;13.668;2023-02-23T08:27:56;98712.50;;;7.16;92.54
4024;BME280;2026;51.002;13.668;2023-02-23T08:33:06;98722.78;;;7.38;92.10
4024;BME280;2026;51.002;13.668;2023-02-23T08:38:10;98728.41;;;7.42;90.67
4024;BME280;2026;51.002;13.668;2023-02-23T08:43:13;98725.00;;;7.68;90.52
4024;BME280;2026;51.002;13.668;2023-02-23T08:48:18;98723.41;;;7.81;90.63
4024;BME280;2026;51.002;13.668;2023-02-23T08:53:23;98722.22;;;7.50;90.80
4024;BME280;2026;51.002;13.668;2023-02-23T08:58:30;98719.16;;;7.39;91.24
4024;BME280;2026;51.002;13.668;2023-02-23T09:03:34;98723.22;;;7.69;91.83
4024;BME280;2026;51.002;13.668;2023-02-23T09:08:41;98725.19;;;8.00;89.82
4024;BME280;2026;51.002;13.668;2023-02-23T09:13:44;98724.34;;;8.27;90.19
4024;BME280;2026;51.002;13.668;2023-02-23T09:18:48;98725.69;;;8.50;88.79
4024;BME280;2026;51.002;13.668;2023-02-23T09:23:51;98724.88;;;8.49;86.90
4024;BME280;2026;51.002;13.668;2023-02-23T09:28:58;98719.31;;;8.91;87.53
4024;BME280;2026;51.002;13.668;2023-02-23T09:34:02;98723.56;;;8.86;86.50
4024;BME280;2026;51.002;13.668;2023-02-23T09:39:05;98726.56;;;9.60;85.45
4024;BME280;2026;51.002;13.668;2023-02-23T09:44:15;98725.78;;;10.04;85.41
4024;BME280;2026;51.002;13.668;2023-02-23T09:49:27;98726.81;;;10.22;84.00
4024;BME280;2026;51.002;13.668;2023-02-23T09:54:33;98721.41;;;10.42;82.92
4024;BME280;2026;51.002;13.668;2023-02-23T09:59:38;98728.00;;;10.26;82.88
4024;BME280;2026;51.002;13.668;2023-02-23T10:04:45;98720.50;;;11.16;81.97
4024;BME280;2026;51.002;13.668;2023-02-23T10:10:11;98711.03;;;11.69;78.73
4024;BME280;2026;51.002;13.668;2023-02-23T10:15:25;98715.38;;;12.23;76.70
4024;BME280;2026;51.002;13.668;2023-02-23T10:20:39;98714.63;;;12.52;75.94
4024;BME280;2026;51.002;13.668;2023-02-23T10:25:47;98713.69;;;12.58;75.16
4024;BME280;2026;51.002;13.668;2023-02-23T10:30:53;98714.41;;;12.54;75.08
4024;BME280;2026;51.002;13.668;2023-02-23T10:36:08;98710.03;;;12.59;75.50
4024;BME280;2026;51.002;13.668;2023-02-23T10:41:14;98707.03;;;12.68;75.23
4024;BME280;2026;51.002;13.668;2023-02-23T10:46:20;98705.19;;;12.80;75.14
4024;BME280;2026;51.002;13.668;2023-02-23T10:51:28;98697.09;;;12.99;74.79
4024;BME280;2026;51.002;13.668;2023-02-23T10:56:42;98697.47;;;13.19;73.90
4024;BME280;2026;51.002;13.668;2023-02-23T11:01:45;98695.84;;;12.60;75.03
4024;BME280;2026;51.002;13.668;2023-02-23T11:07:07;98687.34;;;12.99;73.33
4024;BME280;2026;51.002;13.668;2023-02-23T11:12:17;98691.44;;;12.49;74.64
4024;BME280;2026;51.002;13.668;2023-02-23T11:17:26;98681.69;;;13.19;73.63
4024;BME280;2026;51.002;13.668;2023-02-23T11:22:33;98675.69;;;13.07;72.24
4024;BME280;2026;51.002;13.668;2023-02-23T11:27:37;98674.78;;;13.70;69.76
4024;BME280;2026;51.002;13.668;2023-02-23T11:32:40;98662.75;;;13.57;70.52
4024;BME280;2026;51.002;13.668;2023-02-23T11:37:46;98655.81;;;13.68;70.29
4024;BME280;2026;51.002;13.668;2023-02-23T11:42:51;98652.91;;;13.86;69.32
4024;BME280;2026;51.002;13.668;2023-02-23T11:47:56;98651.22;;;13.41;71.59
4024;BME280;2026;51.002;13.668;2023-02-23T11:53:03;98654.81;;;13.52;71.02
4024;BME280;2026;51.002;13.668;2023-02-23T11:58:20;98644.91;;;13.98;70.48
4024;BME280;2026;51.002;13.668;2023-02-23T12:03:25;98646.50;;;14.22;69.98
4024;BME280;2026;51.002;13.668;2023-02-23T12:08:39;98639.44;;;14.05;69.81
4024;BME280;2026;51.002;13.668;2023-02-23T12:13:46;98638.03;;;13.97;70.77
4024;BME280;2026;51.002;13.668;2023-02-23T12:18:54;98631.47;;;14.44;70.34
4024;BME280;2026;51.002;13.668;2023-02-23T12:24:11;98626.63;;;14.58;69.64
4024;BME280;2026;51.002;13.668;2023-02-23T12:29:22;98623.19;;;14.36;68.01
4024;BME280;2026;51.002;13.668;2023-02-23T12:34:35;98625.28;;;14.34;67.86
4024;BME280;2026;51.002;13.668;2023-02-23T12:39:45;98615.63;;;14.67;68.69
4024;BME280;2026;51.002;13.668;2023-02-23T12:44:52;98612.28;;;14.49;66.80
4024;BME280;2026;51.002;13.668;2023-02-23T12:49:58;98618.91;;;14.07;67.82
4024;BME280;2026;51.002;13.668;2023-02-23T12:55:11;98593.50;;;14.73;67.16
4024;BME280;2026;51.002;13.668;2023-02-23T13:00:38;98594.09;;;14.80;67.21
4024;BME280;2026;51.002;13.668;2023-02-23T13:05:47;98596.13;;;15.01;67.84
4024;BME280;2026;51.002;13.668;2023-02-23T13:11:02;98594.09;;;14.80;68.83
4024;BME280;2026;51.002;13.668;2023-02-23T13:16:10;98599.63;;;14.79;69.37
4024;BME280;2026;51.002;13.668;2023-02-23T13:21:21;98603.00;;;13.40;70.52
4024;BME280;2026;51.002;13.668;2023-02-23T13:26:33;98604.94;;;13.28;73.09
4024;BME280;2026;51.002;13.668;2023-02-23T13:31:38;98600.78;;;13.49;73.87
4024;BME280;2026;51.002;13.668;2023-02-23T13:36:42;98591.75;;;13.45;71.87
4024;BME280;2026;51.002;13.668;2023-02-23T13:41:55;98595.19;;;13.11;72.58
4024;BME280;2026;51.002;13.668;2023-02-23T13:47:11;98598.69;;;13.00;73.66
4024;BME280;2026;51.002;13.668;2023-02-23T13:52:25;98601.50;;;13.27;73.98
4024;BME280;2026;51.002;13.668;2023-02-23T13:57:31;98596.63;;;13.36;73.09
4024;BME280;2026;51.002;13.668;2023-02-23T14:02:38;98602.06;;;13.12;73.35
4024;BME280;2026;51.002;13.668;2023-02-23T14:07:43;98591.06;;;13.15;73.82
4024;BME280;2026;51.002;13.668;2023-02-23T14:13:15;98594.38;;;12.93;74.20
4024;BME280;2026;51.002;13.668;2023-02-23T14:18:32;98593.78;;;12.74;76.07
4024;BME280;2026;51.002;13.668;2023-02-23T14:23:49;98593.06;;;12.79;76.15
4024;BME280;2026;51.002;13.668;2023-02-23T14:29:10;98600.84;;;12.57;76.98
4024;BME280;2026;51.002;13.668;2023-02-23T14:34:19;98600.19;;;12.49;77.54
4024;BME280;2026;51.002;13.668;2023-02-23T14:39:25;98593.63;;;12.35;79.50
4024;BME280;2026;51.002;13.668;2023-02-23T14:44:35;98594.34;;;12.18;80.85
4024;BME280;2026;51.002;13.668;2023-02-23T14:49:43;98601.38;;;12.42;80.48
4024;BME280;2026;51.002;13.668;2023-02-23T14:54:47;98599.47;;;12.25;82.39
4024;BME280;2026;51.002;13.668;2023-02-23T14:59:55;98598.09;;;11.81;86.67
4024;BME280;2026;51.002;13.668;2023-02-23T15:04:58;98593.16;;;11.97;87.32
4024;BME280;2026;51.002;13.668;2023-02-23T15:10:08;98589.44;;;12.22;86.00
4024;BME280;2026;51.002;13.668;2023-02-23T15:15:16;98587.00;;;12.32;89.16
4024;BME280;2026;51.002;13.668;2023-02-23T15:20:23;98581.31;;;12.23;90.45
4024;BME280;2026;51.002;13.668;2023-02-23T15:25:36;98582.25;;;12.17;91.46
4024;BME280;2026;51.002;13.668;2023-02-23T15:30:45;98576.06;;;12.23;91.00
4024;BME280;2026;51.002;13.668;2023-02-23T15:35:51;98575.66;;;12.44;90.46
4024;BME280;2026;51.002;13.668;2023-02-23T15:40:57;98579.75;;;12.39;90.07
4024;BME280;2026;51.002;13.668;2023-02-23T15:46:04;98578.16;;;12.38;89.90
4024;BME280;2026;51.002;13.668;2023-02-23T15:51:20;98585.16;;;12.33;89.88
4024;BME280;2026;51.002;13.668;2023-02-23T15:56:25;98577.09;;;12.22;90.31
4024;BME280;2026;51.002;13.668;2023-02-23T16:01:30;98582.41;;;12.10;91.27
4024;BME280;2026;51.002;13.668;2023-02-23T16:06:35;98597.13;;;12.11;90.43
4024;BME280;2026;51.002;13.668;2023-02-23T16:11:38;98587.75;;;12.04;90.94
4024;BME280;2026;51.002;13.668;2023-02-23T16:16:44;98592.81;;;11.93;91.15
4024;BME280;2026;51.002;13.668;2023-02-23T16:22:04;98583.22;;;11.87;91.40
4024;BME280;2026;51.002;13.668;2023-02-23T16:27:10;98591.00;;;11.82;91.74
4024;BME280;2026;51.002;13.668;2023-02-23T16:32:18;98594.13;;;11.67;92.00
4024;BME280;2026;51.002;13.668;2023-02-23T16:37:22;98592.38;;;11.73;91.44
4024;BME280;2026;51.002;13.668;2023-02-23T16:42:27;98590.69;;;11.54;92.31
4024;BME280;2026;51.002;13.668;2023-02-23T16:47:35;98585.91;;;11.51;92.60
4024;BME280;2026;51.002;13.668;2023-02-23T16:52:42;98581.00;;;11.43;92.92
4024;BME280;2026;51.002;13.668;2023-02-23T16:57:48;98579.72;;;11.34;92.73
4024;BME280;2026;51.002;13.668;2023-02-23T17:02:54;98586.91;;;11.38;92.68
4024;BME280;2026;51.002;13.668;2023-02-23T17:07:58;98588.88;;;11.43;92.21
4024;BME280;2026;51.002;13.668;2023-02-23T17:13:03;98586.56;;;11.35;92.90
4024;BME280;2026;51.002;13.668;2023-02-23T17:18:08;98595.56;;;11.27;93.14
4024;BME280;2026;51.002;13.668;2023-02-23T17:23:11;98590.78;;;11.24;93.62
4024;BME280;2026;51.002;13.668;2023-02-23T17:28:14;98598.75;;;11.17;93.68
4024;BME280;2026;51.002;13.668;2023-02-23T17:33:19;98597.50;;;11.20;93.58
4024;BME280;2026;51.002;13.668;2023-02-23T17:38:22;98608.44;;;11.17;93.65
4024;BME280;2026;51.002;13.668;2023-02-23T17:43:35;98604.56;;;11.19;93.74
4024;BME280;2026;51.002;13.668;2023-02-23T17:48:40;98600.78;;;11.15;93.90
4024;BME280;2026;51.002;13.668;2023-02-23T17:53:45;98598.09;;;11.22;93.47
4024;BME280;2026;51.002;13.668;2023-02-23T17:58:49;98606.47;;;11.00;94.63
4024;BME280;2026;51.002;13.668;2023-02-23T18:03:53;98600.88;;;10.84;96.28
4024;BME280;2026;51.002;13.668;2023-02-23T18:08:59;98594.81;;;10.84;96.37
4024;BME280;2026;51.002;13.668;2023-02-23T18:14:05;98595.72;;;10.78;96.99
4024;BME280;2026;51.002;13.668;2023-02-23T18:19:11;98588.91;;;10.88;96.63
4024;BME280;2026;51.002;13.668;2023-02-23T18:24:15;98583.06;;;10.86;96.54
4024;BME280;2026;51.002;13.668;2023-02-23T18:29:18;98582.03;;;10.87;96.64
4024;BME280;2026;51.002;13.668;2023-02-23T18:34:22;98584.00;;;10.92;95.96
4024;BME280;2026;51.002;13.668;2023-02-23T18:39:28;98582.16;;;10.81;96.56
4024;BME280;2026;51.002;13.668;2023-02-23T18:44:32;98595.38;;;10.74;97.23
4024;BME280;2026;51.002;13.668;2023-02-23T18:49:37;98587.03;;;10.77;97.20
4024;BME280;2026;51.002;13.668;2023-02-23T18:54:40;98585.34;;;10.83;97.13
4024;BME280;2026;51.002;13.668;2023-02-23T18:59:43;98588.22;;;10.81;97.03
4024;BME280;2026;51.002;13.668;2023-02-23T19:04:49;98582.34;;;10.67;97.98
4024;BME280;2026;51.002;13.668;2023-02-23T19:09:52;98580.38;;;10.63;97.74
4024;BME280;2026;51.002;13.668;2023-02-23T19:14:56;98576.66;;;10.70;97.26
4024;BME280;2026;51.002;13.668;2023-02-23T19:20:00;98579.47;;;10.57;97.33
4024;BME280;2026;51.002;13.668;2023-02-23T19:25:06;98582.53;;;10.54;97.59
4024;BME280;2026;51.002;13.668;2023-02-23T19:30:12;98574.78;;;10.59;97.01
4024;BME280;2026;51.002;13.668;2023-02-23T19:35:16;98576.22;;;10.43;97.70
4024;BME280;2026;51.002;13.668;2023-02-23T19:40:20;98572.22;;;10.40;97.27
4024;BME280;2026;51.002;13.668;2023-02-23T19:45:29;98575.38;;;10.30;97.56
4024;BME280;2026;51.002;13.668;2023-02-23T19:50:33;98566.72;;;10.30;97.21
4024;BME280;2026;51.002;13.668;2023-02-23T19:55:37;98565.34;;;10.09;98.37
4024;BME280;2026;51.002;13.668;2023-02-23T20:00:42;98566.44;;;10.19;97.97
4024;BME280;2026;51.002;13.668;2023-02-23T20:05:49;98562.38;;;10.24;97.70
4024;BME280;2026;51.002;13.668;2023-02-23T20:10:52;98556.31;;;10.23;97.79
4024;BME280;2026;51.002;13.668;2023-02-23T20:15:59;98552.06;;;10.10;98.35
4024;BME280;2026;51.002;13.668;2023-02-23T20:21:07;98554.97;;;10.02;97.95
4024;BME280;2026;51.002;13.668;2023-02-23T20:26:13;98553.22;;;9.96;98.70
4024;BME280;2026;51.002;13.668;2023-02-23T20:31:18;98550.09;;;9.87;98.45
4024;BME280;2026;51.002;13.668;2023-02-23T20:36:24;98542.59;;;9.90;97.82
4024;BME280;2026;51.002;13.668;2023-02-23T20:41:27;98540.28;;;9.82;98.36
4024;BME280;2026;51.002;13.668;2023-02-23T20:46:32;98537.81;;;9.87;98.31
4024;BME280;2026;51.002;13.668;2023-02-23T20:51:37;98534.63;;;9.85;98.11
4024;BME280;2026;51.002;13.668;2023-02-23T20:56:42;98531.84;;;9.80;98.04
4024;BME280;2026;51.002;13.668;2023-02-23T21:01:45;98533.31;;;9.95;97.53
4024;BME280;2026;51.002;13.668;2023-02-23T21:06:49;98529.97;;;9.87;97.36
4024;BME280;2026;51.002;13.668;2023-02-23T21:11:52;98523.28;;;9.91;97.11
4024;BME280;2026;51.002;13.668;2023-02-23T21:16:56;98530.22;;;9.98;96.86
4024;BME280;2026;51.002;13.668;2023-02-23T21:22:00;98525.59;;;10.00;96.80
4024;BME280;2026;51.002;13.668;2023-02-23T21:27:03;98518.59;;;9.94;96.90
4024;BME280;2026;51.002;13.668;2023-02-23T21:32:07;98514.75;;;9.96;96.70
4024;BME280;2026;51.002;13.668;2023-02-23T21:37:12;98511.19;;;9.90;97.51
4024;BME280;2026;51.002;13.668;2023-02-23T21:42:15;98504.03;;;9.98;96.80
4024;BME280;2026;51.002;13.668;2023-02-23T21:47:24;98495.78;;;9.63;98.90
4024;BME280;2026;51.002;13.668;2023-02-23T21:52:28;98502.59;;;9.46;100.00
4024;BME280;2026;51.002;13.668;2023-02-23T21:57:32;98498.53;;;9.31;100.00
4024;BME280;2026;51.002;13.668;2023-02-23T22:02:34;98506.56;;;9.11;100.00
4024;BME280;2026;51.002;13.668;2023-02-23T22:07:47;98498.84;;;9.16;100.00
4024;BME280;2026;51.002;13.668;2023-02-23T22:12:51;98514.25;;;8.80;100.00
4024;BME280;2026;51.002;13.668;2023-02-23T22:17:56;98510.50;;;8.95;100.00
4024;BME280;2026;51.002;13.668;2023-02-23T22:23:01;98507.84;;;9.02;100.00
4024;BME280;2026;51.002;13.668;2023-02-23T22:28:05;98503.28;;;8.97;100.00
4024;BME280;2026;51.002;13.668;2023-02-23T22:33:11;98503.63;;;9.01;100.00
4024;BME280;2026;51.002;13.668;2023-02-23T22:38:15;98505.03;;;8.78;100.00
4024;BME280;2026;51.002;13.668;2023-02-23T22:43:20;98503.94;;;8.60;100.00
4024;BME280;2026;51.002;13.668;2023-02-23T22:48:23;98499.69;;;8.91;100.00
4024;BME280;2026;51.002;13.668;2023-02-23T22:53:30;98497.88;;;8.66;100.00
4024;BME280;2026;51.002;13.668;2023-02-23T22:58:34;98488.97;;;8.74;100.00
4024;BME280;2026;51.002;13.668;2023-02-23T23:03:39;98483.84;;;8.86;100.00
4024;BME280;2026;51.002;13.668;2023-02-23T23:08:44;98478.72;;;8.98;100.00
4024;BME280;2026;51.002;13.668;2023-02-23T23:13:51;98478.28;;;9.01;100.00
4024;BME280;2026;51.002;13.668;2023-02-23T23:18:58;98479.09;;;9.02;99.90
4024;BME280;2026;51.002;13.668;2023-02-23T23:24:05;98478.41;;;8.88;100.00
4024;BME280;2026;51.002;13.668;2023-02-23T23:29:12;98479.13;;;8.95;100.00
4024;BME280;2026;51.002;13.668;2023-02-23T23:34:15;98478.72;;;8.98;100.00
4024;BME280;2026;51.002;13.668;2023-02-23T23:39:24;98479.47;;;8.80;100.00
4024;BME280;2026;51.002;13.668;2023-02-23T23:44:27;98471.47;;;8.49;100.00
4024;BME280;2026;51.002;13.668;2023-02-23T23:49:31;98464.34;;;8.63;100.00
4024;BME280;2026;51.002;13.668;2023-02-23T23:54:39;98466.13;;;8.63;100.00
4024;BME280;2026;51.002;13.668;2023-02-23T23:59:43;98451.56;;;8.74;100.00
